createdAt,value
2023-01-26T00:01:43.595Z,14.90
2023-01-26T00:04:11.897Z,15.70
2023-01-26T00:06:39.646Z,15.90
2023-01-26T00:09:13.353Z,12.20
2023-01-26T00:11:41.092Z,15.60
2023-01-26T00:14:09.204Z,15.30
2023-01-26T00:16:36.855Z,14.50
2023-01-26T00:19:05.004Z,15.50
2023-01-26T00:21:32.994Z,13.20
2023-01-26T00:24:00.933Z,15.90
2023-01-26T00:26:28.624Z,18.80
2023-01-26T00:28:56.381Z,15.90
2023-01-26T00:31:27.509Z,15.80
2023-01-26T00:33:56.747Z,15.80
2023-01-26T00:36:24.871Z,15.20
2023-01-26T00:38:52.554Z,17.90
2023-01-26T00:41:49.495Z,16.30
2023-01-26T00:44:17.121Z,15.60
2023-01-26T00:46:44.742Z,11.80
2023-01-26T00:49:13.067Z,17.90
2023-01-26T00:51:40.722Z,17.80
2023-01-26T00:54:08.490Z,14.40
2023-01-26T00:56:36.193Z,18.80
2023-01-26T00:59:04.195Z,15.30
2023-01-26T01:01:32.217Z,18.40
2023-01-26T01:03:59.838Z,17.20
2023-01-26T01:06:27.520Z,16.90
2023-01-26T01:08:55.315Z,14.30
2023-01-26T01:11:23.041Z,16.10
2023-01-26T01:13:52.027Z,17.80
2023-01-26T01:16:20.280Z,17.00
2023-01-26T01:18:48.417Z,12.90
2023-01-26T01:21:17.812Z,15.50
2023-01-26T01:23:45.522Z,14.20
2023-01-26T01:26:14.164Z,14.30
2023-01-26T01:28:43.820Z,15.90
2023-01-26T01:31:14.722Z,17.50
2023-01-26T01:33:42.930Z,16.10
2023-01-26T01:36:16.734Z,16.00
2023-01-26T01:38:45.350Z,15.50
2023-01-26T01:41:14.859Z,17.40
2023-01-26T01:43:42.930Z,18.00
2023-01-26T01:46:33.973Z,17.80
2023-01-26T01:49:27.424Z,13.30
2023-01-26T01:52:18.419Z,18.10
2023-01-26T01:55:07.547Z,17.00
2023-01-26T01:57:47.156Z,16.80
2023-01-26T02:00:18.576Z,16.20
2023-01-26T02:03:14.340Z,14.90
2023-01-26T02:05:49.795Z,15.00
2023-01-26T02:08:19.709Z,16.30
2023-01-26T02:10:50.087Z,16.30
2023-01-26T02:13:19.575Z,18.80
2023-01-26T02:15:48.231Z,15.40
2023-01-26T02:18:17.354Z,15.90
2023-01-26T02:20:50.661Z,13.40
2023-01-26T02:23:29.651Z,14.00
2023-01-26T02:26:06.025Z,17.50
2023-01-26T02:28:33.701Z,17.60
2023-01-26T02:31:01.463Z,12.90
2023-01-26T02:33:32.471Z,15.90
2023-01-26T02:36:05.181Z,14.00
2023-01-26T02:38:53.266Z,15.70
2023-01-26T02:41:39.843Z,12.80
2023-01-26T02:44:10.490Z,13.00
2023-01-26T02:46:38.362Z,13.70
2023-01-26T02:49:24.740Z,11.90
2023-01-26T02:51:53.047Z,12.40
2023-01-26T02:54:45.277Z,15.30
2023-01-26T02:57:12.935Z,17.70
2023-01-26T02:59:41.782Z,14.20
2023-01-26T03:02:09.833Z,13.50
2023-01-26T03:04:37.454Z,16.10
2023-01-26T03:10:16.704Z,14.70
2023-01-26T03:12:45.238Z,15.90
2023-01-26T03:15:31.775Z,14.80
2023-01-26T03:18:23.310Z,14.60
2023-01-26T03:21:09.737Z,16.00
2023-01-26T03:23:55.932Z,14.70
2023-01-26T03:26:43.025Z,9.80
2023-01-26T03:29:11.536Z,14.90
2023-01-26T03:31:40.981Z,13.10
2023-01-26T03:34:08.682Z,15.50
2023-01-26T03:36:37.923Z,17.10
2023-01-26T03:39:08.705Z,15.00
2023-01-26T03:41:55.110Z,17.30
2023-01-26T03:44:41.415Z,12.60
2023-01-26T03:47:28.360Z,15.80
2023-01-26T03:50:14.828Z,16.20
2023-01-26T03:53:01.926Z,13.40
2023-01-26T03:55:48.763Z,12.20
2023-01-26T03:58:16.423Z,14.80
2023-01-26T04:00:44.194Z,13.80
2023-01-26T04:03:30.700Z,16.20
2023-01-26T04:06:18.209Z,17.00
2023-01-26T04:08:49.188Z,15.40
2023-01-26T04:11:16.977Z,14.20
2023-01-26T04:14:03.789Z,14.80
2023-01-26T04:16:52.934Z,12.70
2023-01-26T04:19:39.478Z,14.30
2023-01-26T04:22:08.090Z,14.10
2023-01-26T04:24:37.419Z,14.20
2023-01-26T04:27:05.019Z,12.30
2023-01-26T04:29:37.051Z,12.60
2023-01-26T04:32:04.952Z,14.30
2023-01-26T04:34:34.258Z,15.70
2023-01-26T04:37:04.630Z,13.50
2023-01-26T04:39:43.138Z,17.50
2023-01-26T04:42:10.879Z,11.90
2023-01-26T04:44:38.863Z,15.90
2023-01-26T04:47:06.850Z,16.40
2023-01-26T04:49:34.613Z,18.20
2023-01-26T04:52:02.314Z,14.90
2023-01-26T04:54:30.516Z,15.40
2023-01-26T04:56:58.261Z,17.00
2023-01-26T04:59:25.923Z,17.00
2023-01-26T05:01:57.467Z,14.60
2023-01-26T05:04:25.291Z,12.60
2023-01-26T05:06:54.451Z,14.80
2023-01-26T05:09:24.675Z,14.40
2023-01-26T05:12:27.512Z,13.50
2023-01-26T05:15:13.912Z,11.40
2023-01-26T05:17:59.034Z,12.80
2023-01-26T05:20:52.785Z,14.50
2023-01-26T05:23:27.095Z,14.50
2023-01-26T05:26:13.528Z,13.10
2023-01-26T05:28:52.945Z,12.00
2023-01-26T05:31:20.925Z,15.30
2023-01-26T05:33:49.321Z,15.10
2023-01-26T05:36:21.616Z,13.10
2023-01-26T05:38:49.392Z,11.80
2023-01-26T05:41:20.852Z,11.20
2023-01-26T05:44:10.367Z,12.90
2023-01-26T05:46:49.268Z,12.90
2023-01-26T05:49:16.975Z,16.40
2023-01-26T06:02:06.532Z,12.90
2023-01-26T06:04:36.433Z,10.90
2023-01-26T06:07:04.542Z,10.60
2023-01-26T06:09:39.991Z,10.20
2023-01-26T06:12:23.427Z,13.00
2023-01-26T06:15:03.555Z,11.70
2023-01-26T06:17:36.273Z,13.50
2023-01-26T06:20:07.482Z,20.10
2023-01-26T06:22:35.885Z,12.90
2023-01-26T06:25:04.070Z,15.90
2023-01-26T06:27:31.939Z,14.50
2023-01-26T06:30:05.347Z,18.60
2023-01-26T06:32:33.005Z,17.30
2023-01-26T06:35:00.719Z,22.60
2023-01-26T06:49:05.596Z,15.70
2023-01-26T06:51:46.037Z,17.10
2023-01-26T06:54:15.086Z,13.70
2023-01-26T06:57:01.597Z,12.70
2023-01-26T06:59:50.035Z,13.80
2023-01-26T07:02:23.822Z,11.20
2023-01-26T07:04:52.335Z,13.00
2023-01-26T07:07:20.054Z,14.60
2023-01-26T07:09:47.818Z,14.80
2023-01-26T07:12:15.485Z,13.60
2023-01-26T07:14:43.190Z,19.00
2023-01-26T07:17:10.861Z,18.50
2023-01-26T07:19:38.637Z,16.90
2023-01-26T07:22:06.328Z,13.80
2023-01-26T07:24:33.962Z,11.50
2023-01-26T07:27:01.680Z,12.70
2023-01-26T07:29:29.392Z,10.00
2023-01-26T07:31:57.174Z,18.00
2023-01-26T07:34:24.853Z,14.60
2023-01-26T07:36:53.049Z,15.20
2023-01-26T07:39:20.685Z,13.00
2023-01-26T07:41:49.688Z,9.70
2023-01-26T07:44:35.904Z,10.40
2023-01-26T07:47:03.541Z,12.90
2023-01-26T07:49:31.995Z,11.00
2023-01-26T07:51:59.672Z,13.90
2023-01-26T07:54:27.407Z,11.50
2023-01-26T07:56:55.251Z,11.50
2023-01-26T07:59:23.660Z,10.80
2023-01-26T08:01:52.045Z,8.80
2023-01-26T08:04:19.848Z,8.10
2023-01-26T08:06:47.533Z,11.40
2023-01-26T08:09:15.295Z,7.30
2023-01-26T08:11:42.950Z,11.20
2023-01-26T08:14:10.600Z,7.30
2023-01-26T08:16:38.256Z,7.90
2023-01-26T08:19:05.972Z,9.40
2023-01-26T08:21:33.704Z,8.70
2023-01-26T08:24:03.410Z,7.80
2023-01-26T08:28:59.019Z,8.10
2023-01-26T08:31:28.306Z,10.00
2023-01-26T08:33:56.487Z,6.90
2023-01-26T08:36:24.159Z,6.30
2023-01-26T08:38:52.406Z,5.20
2023-01-26T08:41:20.118Z,5.20
2023-01-26T08:43:48.432Z,5.90
2023-01-26T08:46:16.165Z,6.30
2023-01-26T08:48:43.987Z,8.80
2023-01-26T08:51:12.147Z,8.90
2023-01-26T08:53:39.804Z,8.80
2023-01-26T08:56:10.358Z,6.90
2023-01-26T08:58:40.537Z,8.10
2023-01-26T09:01:12.749Z,7.20
2023-01-26T09:03:42.529Z,6.60
2023-01-26T09:06:12.235Z,5.80
2023-01-26T09:08:40.089Z,4.20
2023-01-26T09:11:08.227Z,5.10
2023-01-26T09:13:37.286Z,6.60
2023-01-26T09:16:07.148Z,7.90
2023-01-26T09:18:34.980Z,7.50
2023-01-26T09:21:07.038Z,7.50
2023-01-26T09:23:35.933Z,6.30
2023-01-26T09:26:03.998Z,8.10
2023-01-26T09:28:31.714Z,6.50
2023-01-26T09:31:07.009Z,6.40
2023-01-26T09:33:34.987Z,5.80
2023-01-26T09:36:07.962Z,6.50
2023-01-26T09:38:35.990Z,6.70
2023-01-26T09:41:25.023Z,6.60
2023-01-26T09:43:57.316Z,5.20
2023-01-26T09:46:52.974Z,6.80
2023-01-26T09:49:45.597Z,6.80
2023-01-26T09:52:31.912Z,5.80
2023-01-26T09:55:03.736Z,7.20
2023-01-26T09:57:39.978Z,5.80
2023-01-26T10:00:18.093Z,5.50
2023-01-26T10:03:04.141Z,4.60
2023-01-26T10:05:54.289Z,6.20
2023-01-26T10:08:43.729Z,6.50
2023-01-26T10:11:39.283Z,5.60
2023-01-26T10:14:19.310Z,6.20
2023-01-26T10:16:49.729Z,5.60
2023-01-26T10:19:23.342Z,5.30
2023-01-26T10:21:53.027Z,4.70
2023-01-26T10:24:23.854Z,7.10
2023-01-26T10:26:58.003Z,6.10
2023-01-26T10:29:25.668Z,6.50
2023-01-26T10:31:55.126Z,7.10
2023-01-26T10:34:26.151Z,5.40
2023-01-26T10:37:02.437Z,6.30
2023-01-26T10:39:30.120Z,6.20
2023-01-26T10:42:02.973Z,6.70
2023-01-26T10:44:35.984Z,5.40
2023-01-26T10:47:16.018Z,6.60
2023-01-26T10:49:44.818Z,5.70
2023-01-26T10:52:27.820Z,5.40
2023-01-26T10:55:13.619Z,6.40
2023-01-26T10:57:42.778Z,6.70
2023-01-26T11:00:23.703Z,6.40
2023-01-26T11:03:04.737Z,7.60
2023-01-26T11:05:32.487Z,6.50
2023-01-26T11:08:02.222Z,6.90
2023-01-26T11:13:20.104Z,6.70
2023-01-26T11:15:52.206Z,7.10
2023-01-26T11:18:59.127Z,6.90
2023-01-26T11:21:39.207Z,6.00
2023-01-26T11:24:17.461Z,5.90
2023-01-26T11:27:03.135Z,5.60
2023-01-26T11:29:51.650Z,5.80
2023-01-26T11:32:39.518Z,5.40
2023-01-26T11:35:28.449Z,7.60
2023-01-26T11:38:26.932Z,5.60
2023-01-26T11:41:19.751Z,4.80
2023-01-26T11:44:17.850Z,5.40
2023-01-26T11:47:20.740Z,5.80
2023-01-26T11:50:04.560Z,5.30
2023-01-26T11:52:53.341Z,8.20
2023-01-26T11:55:31.242Z,5.50
2023-01-26T11:58:19.221Z,7.80
2023-01-26T12:00:52.098Z,6.30
2023-01-26T12:03:26.016Z,5.60
2023-01-26T12:05:59.388Z,7.20
2023-01-26T12:08:40.688Z,5.10
2023-01-26T12:11:23.127Z,8.10
2023-01-26T12:14:06.092Z,7.40
2023-01-26T12:16:42.811Z,6.70
2023-01-26T12:19:20.142Z,7.20
2023-01-26T12:21:50.429Z,8.10
2023-01-26T12:25:00.877Z,5.50
2023-01-26T12:27:42.281Z,6.60
2023-01-26T12:30:31.168Z,6.10
2023-01-26T12:32:59.306Z,6.30
2023-01-26T12:35:50.703Z,6.30
2023-01-26T12:38:26.603Z,8.10
2023-01-26T12:43:56.975Z,6.60
2023-01-26T12:46:27.460Z,6.10
2023-01-26T12:49:02.895Z,7.00
2023-01-26T12:51:37.128Z,6.90
2023-01-26T12:54:27.998Z,6.70
2023-01-26T12:57:00.093Z,6.10
2023-01-26T12:59:47.651Z,8.40
2023-01-26T13:02:16.467Z,7.90
2023-01-26T13:04:47.956Z,5.60
2023-01-26T13:07:32.195Z,6.20
2023-01-26T13:10:16.049Z,8.90
2023-01-26T13:13:01.821Z,6.80
2023-01-26T13:15:32.021Z,6.50
2023-01-26T13:18:04.315Z,6.00
2023-01-26T13:20:45.664Z,6.90
2023-01-26T13:23:28.553Z,8.80
2023-01-26T13:26:19.192Z,5.60
2023-01-26T13:28:49.028Z,5.90
2023-01-26T13:34:02.075Z,4.90
2023-01-26T13:36:35.203Z,6.50
2023-01-26T13:39:30.970Z,7.80
2023-01-26T13:41:58.674Z,7.70
2023-01-26T13:44:45.507Z,9.80
2023-01-26T13:47:20.976Z,8.10
2023-01-26T13:49:50.516Z,9.80
2023-01-26T13:52:26.704Z,7.80
2023-01-26T13:54:57.893Z,11.30
2023-01-26T13:57:28.797Z,9.40
2023-01-26T14:00:01.927Z,10.30
2023-01-26T14:02:35.868Z,6.80
2023-01-26T14:05:03.699Z,9.00
2023-01-26T14:07:36.788Z,8.00
2023-01-26T14:10:06.218Z,7.90
2023-01-26T14:12:41.805Z,8.90
2023-01-26T14:15:26.330Z,5.20
2023-01-26T14:18:03.208Z,7.20
2023-01-26T14:20:34.273Z,8.90
2023-01-26T14:23:13.646Z,7.60
2023-01-26T14:25:46.355Z,8.00
2023-01-26T14:28:20.925Z,10.90
2023-01-26T14:30:55.412Z,8.30
2023-01-26T14:33:24.850Z,10.30
2023-01-26T14:36:01.578Z,6.80
2023-01-26T14:38:32.889Z,7.60
2023-01-26T14:41:01.276Z,7.80
2023-01-26T14:43:29.084Z,8.30
2023-01-26T14:46:09.499Z,8.00
2023-01-26T14:48:46.735Z,10.20
2023-01-26T14:51:20.197Z,8.90
2023-01-26T14:53:50.213Z,7.60
2023-01-26T14:56:23.325Z,7.10
2023-01-26T14:58:54.289Z,10.00
2023-01-26T15:01:25.250Z,7.90
2023-01-26T15:04:02.035Z,7.80
2023-01-26T15:06:31.578Z,8.50
2023-01-26T15:09:22.135Z,5.30
2023-01-26T15:12:15.021Z,7.50
2023-01-26T15:14:45.451Z,10.90
2023-01-26T15:17:40.304Z,7.50
2023-01-26T15:20:31.205Z,7.20
2023-01-26T15:22:58.988Z,9.50
2023-01-26T15:25:29.467Z,8.60
2023-01-26T15:27:59.543Z,7.90
2023-01-26T15:30:37.670Z,10.10
2023-01-26T15:33:05.328Z,9.90
2023-01-26T15:35:35.000Z,11.30
2023-01-26T15:38:13.450Z,8.10
2023-01-26T15:40:41.079Z,9.90
2023-01-26T15:43:15.757Z,10.50
2023-01-26T15:45:51.371Z,10.00
2023-01-26T15:48:19.075Z,8.20
2023-01-26T15:50:48.198Z,8.90
2023-01-26T15:53:20.098Z,7.80
2023-01-26T15:55:52.741Z,13.60
2023-01-26T15:58:20.388Z,10.70
2023-01-26T16:00:49.013Z,11.80
2023-01-26T16:03:18.656Z,10.80
2023-01-26T16:05:50.339Z,10.00
2023-01-26T16:08:19.058Z,13.80
2023-01-26T16:10:47.374Z,17.30
2023-01-26T16:13:18.340Z,23.70
2023-01-26T16:15:53.962Z,11.40
2023-01-26T16:18:22.154Z,10.20
2023-01-26T16:20:50.151Z,9.50
2023-01-26T16:23:22.190Z,11.40
2023-01-26T16:25:50.665Z,12.60
2023-01-26T16:28:19.184Z,8.50
2023-01-26T16:30:49.294Z,8.60
2023-01-26T16:33:22.586Z,12.10
2023-01-26T16:35:50.204Z,9.60
2023-01-26T16:38:17.827Z,8.40
2023-01-26T16:40:48.915Z,13.90
2023-01-26T16:43:27.419Z,11.80
2023-01-26T16:45:55.875Z,9.90
2023-01-26T16:48:24.481Z,7.50
2023-01-26T16:50:53.748Z,9.60
2023-01-26T16:53:31.259Z,9.50
2023-01-26T16:55:59.491Z,8.50
2023-01-26T16:58:27.972Z,9.80
2023-01-26T17:00:55.814Z,8.90
2023-01-26T17:03:24.210Z,10.10
2023-01-26T17:05:51.982Z,9.70
2023-01-26T17:08:19.718Z,10.80
2023-01-26T17:11:01.247Z,10.70
2023-01-26T17:13:31.585Z,9.70
2023-01-26T17:15:59.590Z,9.90
2023-01-26T17:18:27.293Z,9.20
2023-01-26T17:21:01.781Z,8.30
2023-01-26T17:23:29.508Z,6.90
2023-01-26T17:25:59.483Z,7.70
2023-01-26T17:28:27.410Z,8.70
2023-01-26T17:30:55.081Z,7.50
2023-01-26T17:33:22.840Z,6.60
2023-01-26T17:35:59.579Z,8.60
2023-01-26T17:38:27.203Z,7.50
2023-01-26T17:40:56.426Z,6.20
2023-01-26T17:43:24.380Z,9.90
2023-01-26T17:45:52.201Z,7.60
2023-01-26T17:48:19.888Z,7.10
2023-01-26T17:50:48.863Z,9.40
2023-01-26T17:53:16.686Z,9.90
2023-01-26T17:55:44.691Z,10.40
2023-01-26T17:58:12.330Z,7.60
2023-01-26T18:00:40.480Z,8.00
2023-01-26T18:03:10.389Z,6.50
2023-01-26T18:05:38.042Z,7.30
2023-01-26T18:08:06.401Z,6.90
2023-01-26T18:10:34.139Z,7.40
2023-01-26T18:13:01.781Z,7.00
2023-01-26T18:15:29.378Z,8.10
2023-01-26T18:17:56.965Z,7.50
2023-01-26T18:20:24.654Z,6.30
2023-01-26T18:22:52.627Z,6.20
2023-01-26T18:25:21.469Z,7.10
2023-01-26T18:27:49.247Z,5.90
2023-01-26T18:30:17.379Z,8.80
2023-01-26T18:32:45.023Z,7.60
2023-01-26T18:35:12.907Z,7.40
2023-01-26T18:37:40.918Z,6.70
2023-01-26T18:40:09.411Z,7.80
2023-01-26T18:42:37.055Z,6.80
2023-01-26T18:45:05.328Z,6.80
2023-01-26T18:47:33.188Z,5.80
2023-01-26T18:50:00.878Z,6.30
2023-01-26T18:52:30.783Z,7.60
2023-01-26T18:54:58.689Z,6.80
2023-01-26T18:57:26.326Z,6.30
2023-01-26T18:59:54.063Z,6.30
2023-01-26T19:02:21.790Z,7.40
2023-01-26T19:04:53.458Z,8.20
2023-01-26T19:07:21.490Z,6.80
2023-01-26T19:09:49.144Z,7.70
2023-01-26T19:12:17.068Z,6.80
2023-01-26T19:14:44.683Z,6.10
2023-01-26T19:17:12.622Z,7.50
2023-01-26T19:19:41.903Z,6.10
2023-01-26T19:22:10.638Z,4.60
2023-01-26T19:24:38.386Z,5.60
2023-01-26T19:27:06.339Z,5.50
2023-01-26T19:29:34.095Z,6.80
2023-01-26T19:32:01.831Z,6.90
2023-01-26T19:34:31.844Z,6.90
2023-01-26T19:36:59.500Z,7.40
2023-01-26T19:39:27.280Z,7.00
2023-01-26T19:41:54.889Z,8.30
2023-01-26T19:44:22.549Z,7.90
2023-01-26T19:46:52.081Z,7.40
2023-01-26T19:49:21.311Z,7.50
2023-01-26T19:51:49.304Z,7.30
2023-01-26T19:54:17.068Z,6.40
2023-01-26T19:56:44.764Z,7.10
2023-01-26T19:59:12.957Z,6.50
2023-01-26T20:01:40.677Z,7.70
2023-01-26T20:04:13.035Z,8.60
2023-01-26T20:06:40.926Z,7.40
2023-01-26T20:09:09.137Z,7.30
2023-01-26T20:11:36.811Z,7.70
2023-01-26T20:14:08.631Z,8.10
2023-01-26T20:16:37.197Z,6.90
2023-01-26T20:19:05.637Z,6.60
2023-01-26T20:21:33.734Z,6.70
2023-01-26T20:24:06.761Z,6.50
2023-01-26T20:26:35.435Z,6.50
2023-01-26T20:29:04.650Z,7.20
2023-01-26T20:31:34.138Z,7.40
2023-01-26T20:34:02.460Z,7.10
2023-01-26T20:36:31.150Z,6.90
2023-01-26T20:38:58.865Z,7.00
2023-01-26T20:41:28.886Z,7.20
2023-01-26T20:44:01.575Z,6.60
2023-01-26T20:46:33.580Z,6.70
2023-01-26T20:49:01.742Z,7.40
2023-01-26T20:51:33.829Z,7.30
2023-01-26T20:54:03.972Z,7.10
2023-01-26T20:56:32.405Z,8.10
2023-01-26T20:59:00.103Z,6.70
2023-01-26T21:01:27.820Z,7.90
2023-01-26T21:03:55.629Z,7.60
2023-01-26T21:06:24.326Z,8.00
2023-01-26T21:08:54.835Z,7.40
2023-01-26T21:11:28.419Z,9.00
2023-01-26T21:13:57.253Z,8.10
2023-01-26T21:16:25.362Z,7.70
2023-01-26T21:18:53.881Z,8.10
2023-01-26T21:21:22.340Z,9.10
2023-01-26T21:23:50.727Z,8.40
2023-01-26T21:26:22.333Z,8.30
2023-01-26T21:28:52.700Z,9.50
2023-01-26T21:31:21.532Z,8.80
2023-01-26T21:33:49.950Z,8.10
2023-01-26T21:36:20.678Z,7.30
2023-01-26T21:38:50.836Z,8.60
2023-01-26T21:41:41.661Z,8.30
2023-01-26T21:44:09.340Z,8.60
2023-01-26T21:46:37.775Z,9.20
2023-01-26T21:49:06.261Z,8.10
2023-01-26T21:51:57.591Z,10.30
2023-01-26T21:54:25.734Z,8.30
2023-01-26T21:56:53.497Z,11.10
2023-01-26T21:59:21.705Z,10.20
2023-01-26T22:01:52.603Z,7.80
2023-01-26T22:04:30.582Z,11.50
2023-01-26T22:06:58.456Z,10.40
2023-01-26T22:09:26.221Z,10.60
2023-01-26T22:11:53.861Z,8.20
2023-01-26T22:14:24.971Z,9.80
2023-01-26T22:16:52.721Z,9.30
2023-01-26T22:19:20.446Z,10.10
2023-01-26T22:21:48.207Z,7.60
2023-01-26T22:24:18.033Z,15.60
2023-01-26T22:26:45.896Z,12.40
2023-01-26T22:29:13.617Z,9.50
2023-01-26T22:31:41.948Z,8.90
2023-01-26T22:34:11.355Z,10.40
2023-01-26T22:36:40.229Z,8.50
2023-01-26T22:39:08.535Z,6.90
2023-01-26T22:41:37.627Z,7.20
2023-01-26T22:44:06.133Z,7.80
2023-01-26T22:46:34.208Z,10.00
2023-01-26T22:49:04.788Z,10.90
2023-01-26T22:51:36.916Z,8.60
2023-01-26T22:54:05.191Z,11.20
2023-01-26T22:56:33.619Z,14.10
2023-01-26T22:59:01.991Z,12.00
2023-01-26T23:01:31.974Z,12.40
2023-01-26T23:04:01.070Z,13.00
2023-01-26T23:06:29.194Z,9.30
2023-01-26T23:08:58.624Z,8.60
2023-01-26T23:11:28.407Z,10.10
2023-01-26T23:16:25.940Z,10.90
2023-01-26T23:18:56.202Z,11.40
2023-01-26T23:21:25.115Z,12.90
2023-01-26T23:23:52.843Z,11.30
2023-01-26T23:26:20.932Z,10.20
2023-01-26T23:28:48.954Z,11.30
2023-01-26T23:31:18.231Z,12.00
2023-01-26T23:33:46.847Z,11.20
2023-01-26T23:36:15.353Z,4.80
2023-01-26T23:38:45.566Z,9.90
2023-01-26T23:41:13.366Z,11.10
2023-01-26T23:43:41.579Z,11.50
2023-01-26T23:46:10.314Z,12.10
2023-01-26T23:48:38.673Z,10.80
2023-01-26T23:51:09.063Z,13.50
2023-01-26T23:53:36.982Z,6.60
2023-01-26T23:56:14.907Z,10.10
2023-01-26T23:58:43.021Z,17.40
